Spirit — WDD6522 — position and weather

sailwx.info

Track history (hours):
 
Tides and Currents Weather Stations Pressure Air Temp Water Temp Dewpoint Dewpoint Depression Visibility Wind Speed Wind Dir Waves Ship Positions

Spirit

Owner: Nitzsche, Christian, Greenwich, CT. More information available from US FCC via Universal Licensing System and Coast Guard Vessel Documentation Center.

Last reported at 2017-Jul-08 16:00 UTC. Time now 2017-Oct-17 19:17 UTC.
Position N 41°11' W 071°34'.
Warning: this ship's position is months out of date.

Length 13 m.

Type: Sailing vessel. MMSI: 367173990.

Date/timePositionNaut miles runAvg speedWind from/ knotsBaromVisibWave heightAir tempDewpointWater temp
2017-Jul-08 16:00N 41°11' W 071°34'1 2.3
2017-Jul-08 15:30N 41°12' W 071°36'3 6.3
2017-Jul-08 15:00N 41°15' W 071°35'7 7.2
2017-Jul-08 14:00N 41°21' W 071°29'  
2017-Jul-04 17:49N 41°23' W 071°26'2 6.1
2017-Jul-04 17:30N 41°22' W 071°28'3 6.8
2017-Jul-04 17:00N 41°20' W 071°32'4 7.4
2017-Jul-04 16:30N 41°19' W 071°37'4 7.2
2017-Jul-04 16:00N 41°19' W 071°41'3 6.4
2017-Jul-04 15:30N 41°18' W 071°45'2 4.6
2017-Jul-04 15:00N 41°18' W 071°49'  
Track history (hours):
 
Tides and Currents Weather Stations Pressure Air Temp Water Temp Dewpoint Dewpoint Depression Visibility Wind Speed Wind Dir Waves Ship Positions

Spirit

Owner: Nitzsche, Christian, Greenwich, CT. More information available from US FCC via Universal Licensing System and Coast Guard Vessel Documentation Center.

Last reported at 2017-Jul-08 16:00 UTC. Time now 2017-Oct-17 19:17 UTC.
Position N 41°11' W 071°34'.
Warning: this ship's position is months out of date.

Length 13 m.

Type: Sailing vessel. MMSI: 367173990.

Date/timePositionNaut miles runAvg speedWind from/ knotsBaromVisibWave heightAir tempDewpointWater temp
2017-Jul-08 16:00N 41°11' W 071°34'1 2.3
2017-Jul-08 15:30N 41°12' W 071°36'3 6.3
2017-Jul-08 15:00N 41°15' W 071°35'7 7.2
2017-Jul-08 14:00N 41°21' W 071°29'  
2017-Jul-04 17:49N 41°23' W 071°26'2 6.1
2017-Jul-04 17:30N 41°22' W 071°28'3 6.8
2017-Jul-04 17:00N 41°20' W 071°32'4 7.4
2017-Jul-04 16:30N 41°19' W 071°37'4 7.2
2017-Jul-04 16:00N 41°19' W 071°41'3 6.4
2017-Jul-04 15:30N 41°18' W 071°45'2 4.6
2017-Jul-04 15:00N 41°18' W 071°49'  

Dump ship's entire track history